Terminal Aerodrome Forecast
Issued by NWS Portland, ME

Home | Current Version | Previous Version | Text Only | Print | Product List | Glossary On
Versions: 1 2 3 4 5 6 7 8 9 10 11 12 13 14 15 16
000
FTUS41 KGYX 291727
TAFPWM
TAF
KPWM 291727Z 2918/3018 18010KT P6SM SCT040 BKN200
     FM300000 25004KT P6SM BKN250
     FM301500 29010KT P6SM SKC=

USA.gov is the U.S. government's official web portal to all federal, state and local government web resources and services.